Time;durP1;ratioP1;P1;durP2;ratioP2;P2;SDS_P1;SDS_P2;PMS_P1;PMS_P2;Temp;Humidity;BMP_temperature;BMP_pressure;BME280_temperature;BME280_humidity;BME280_pressure;Samples;Min_cycle;Max_cycle;Signal;HPM_P1;HPM_P2
2022/10/04 00:00:24;;;;;;;17.50;9.30;;;;;;;;;;5075580;28;20933;-67
2022/10/04 00:02:52;;;;;;;12.43;8.87;;;;;;;;;;5075357;28;20434;-67
2022/10/04 00:05:22;;;;;;;14.00;9.80;;;;;;;;;;5076064;28;20470;-67
2022/10/04 00:07:52;;;;;;;10.05;8.98;;;;;;;;;;5075412;28;20483;-67
2022/10/04 00:10:20;;;;;;;12.80;9.97;;;;;;;;;;5075201;28;20183;-66
2022/10/04 00:12:49;;;;;;;12.77;9.57;;;;;;;;;;5075407;28;20449;-67
2022/10/04 00:15:19;;;;;;;10.73;9.63;;;;;;;;;;5075451;28;20455;-67
2022/10/04 00:18:00;;;;;;;16.20;10.43;;;;;;;;;;5075008;28;20435;-67
2022/10/04 00:20:46;;;;;;;20.33;10.80;;;;;;;;;;5074986;28;21012;-67
2022/10/04 00:23:28;;;;;;;12.17;10.93;;;;;;;;;;5074863;28;20481;-67
2022/10/04 00:25:57;;;;;;;13.20;9.93;;;;;;;;;;5075310;28;20435;-66
2022/10/04 00:28:32;;;;;;;19.67;9.17;;;;;;;;;;5074984;28;20484;-67
2022/10/04 00:31:09;;;;;;;12.50;10.17;;;;;;;;;;5074798;28;20445;-66
2022/10/04 00:33:37;;;;;;;18.20;9.70;;;;;;;;;;5074620;28;20459;-67
2022/10/04 00:36:19;;;;;;;10.97;9.43;;;;;;;;;;5075252;28;20447;-66
2022/10/04 00:39:02;;;;;;;15.50;10.17;;;;;;;;;;5074571;28;20452;-67
2022/10/04 00:41:29;;;;;;;16.07;9.70;;;;;;;;;;5074610;28;20464;-66
2022/10/04 00:43:57;;;;;;;13.50;9.37;;;;;;;;;;5074786;28;20447;-67
2022/10/04 00:46:28;;;;;;;17.03;9.37;;;;;;;;;;5074547;28;20452;-67
2022/10/04 00:48:57;;;;;;;17.33;9.73;;;;;;;;;;5074350;28;20460;-66
2022/10/04 00:51:28;;;;;;;11.57;9.63;;;;;;;;;;5074654;28;20440;-67
2022/10/04 00:54:01;;;;;;;15.77;10.10;;;;;;;;;;5075023;28;20456;-66
2022/10/04 00:56:31;;;;;;;11.10;10.00;;;;;;;;;;5074599;28;20438;-67
2022/10/04 00:59:10;;;;;;;10.73;9.60;;;;;;;;;;5075052;28;20459;-67
2022/10/04 01:01:37;;;;;;;16.77;10.63;;;;;;;;;;5074209;28;20429;-66
2022/10/04 01:04:07;;;;;;;12.53;9.67;;;;;;;;;;5074335;28;20440;-66
2022/10/04 01:06:35;;;;;;;12.57;9.48;;;;;;;;;;5074009;28;20447;-66
2022/10/04 01:09:06;;;;;;;16.15;9.52;;;;;;;;;;5074169;28;20222;-66
2022/10/04 01:11:36;;;;;;;16.43;10.40;;;;;;;;;;5074632;28;20252;-67
2022/10/04 01:14:06;;;;;;;10.27;9.20;;;;;;;;;;5073790;28;20454;-66
2022/10/04 01:16:35;;;;;;;14.10;9.93;;;;;;;;;;5074549;28;20515;-66
2022/10/04 01:19:17;;;;;;;15.50;9.73;;;;;;;;;;5074005;28;20440;-67
2022/10/04 01:21:47;;;;;;;16.03;9.60;;;;;;;;;;5074179;28;20436;-66
2022/10/04 01:24:22;;;;;;;13.90;8.60;;;;;;;;;;5073871;28;20472;-67
2022/10/04 01:26:49;;;;;;;12.00;9.67;;;;;;;;;;5074188;28;20528;-67
2022/10/04 01:29:17;;;;;;;16.70;9.60;;;;;;;;;;5073726;28;20491;-67
2022/10/04 01:31:46;;;;;;;14.13;9.17;;;;;;;;;;5073712;28;20445;-67
2022/10/04 01:34:14;;;;;;;12.60;9.47;;;;;;;;;;5073780;28;20817;-67
2022/10/04 01:36:41;;;;;;;16.10;9.40;;;;;;;;;;5073582;28;20992;-67
2022/10/04 01:39:09;;;;;;;15.20;8.67;;;;;;;;;;5073353;28;20453;-68
2022/10/04 01:41:44;;;;;;;10.33;9.03;;;;;;;;;;5073872;28;20468;-68
2022/10/04 01:44:16;;;;;;;14.13;10.27;;;;;;;;;;5073365;28;20428;-68
2022/10/04 01:46:44;;;;;;;14.10;10.43;;;;;;;;;;5073499;28;20918;-66
2022/10/04 01:49:14;;;;;;;11.00;8.40;;;;;;;;;;5073569;28;20477;-67
2022/10/04 01:51:44;;;;;;;12.10;9.30;;;;;;;;;;5073256;28;20443;-67
2022/10/04 01:54:13;;;;;;;11.90;8.80;;;;;;;;;;5072903;28;20497;-67
2022/10/04 01:56:46;;;;;;;13.73;10.53;;;;;;;;;;5073507;28;20440;-67
2022/10/04 01:59:16;;;;;;;10.83;9.70;;;;;;;;;;5073087;28;20442;-67
2022/10/04 02:01:47;;;;;;;12.10;9.03;;;;;;;;;;5073771;28;20441;-66
2022/10/04 02:04:16;;;;;;;11.10;9.03;;;;;;;;;;5073693;28;20420;-67
2022/10/04 02:06:44;;;;;;;11.07;9.50;;;;;;;;;;5073474;28;20793;-66
2022/10/04 02:09:13;;;;;;;13.07;9.67;;;;;;;;;;5073202;28;20481;-67
2022/10/04 02:11:43;;;;;;;12.40;9.80;;;;;;;;;;5073038;28;20441;-66
2022/10/04 02:14:14;;;;;;;16.00;9.07;;;;;;;;;;5073623;28;20437;-67
2022/10/04 02:16:42;;;;;;;19.47;8.57;;;;;;;;;;5073022;28;20787;-66
2022/10/04 02:19:09;;;;;;;11.80;8.60;;;;;;;;;;5073857;28;20454;-66
2022/10/04 02:21:37;;;;;;;19.17;10.07;;;;;;;;;;5072964;28;20453;-66
2022/10/04 02:24:05;;;;;;;17.07;9.63;;;;;;;;;;5073121;28;20233;-66
2022/10/04 02:26:32;;;;;;;13.13;8.77;;;;;;;;;;5073101;28;20447;-66
2022/10/04 02:29:01;;;;;;;11.85;10.32;;;;;;;;;;5072769;28;20210;-66
2022/10/04 02:34:14;;;;;;;12.27;9.60;;;;;;;;;;5072989;28;20182;-66
2022/10/04 02:36:42;;;;;;;12.65;10.40;;;;;;;;;;5072684;28;20448;-66
2022/10/04 02:39:10;;;;;;;15.33;10.43;;;;;;;;;;5072836;28;20201;-67
2022/10/04 02:41:41;;;;;;;12.60;10.27;;;;;;;;;;5072974;28;20546;-67
2022/10/04 02:44:14;;;;;;;15.30;10.67;;;;;;;;;;5072797;28;20502;-67
2022/10/04 02:46:44;;;;;;;12.47;10.73;;;;;;;;;;5073009;28;20433;-66
2022/10/04 02:49:16;;;;;;;14.90;11.20;;;;;;;;;;5073179;28;20780;-66
2022/10/04 02:51:48;;;;;;;16.57;10.87;;;;;;;;;;5073017;28;20543;-67
2022/10/04 02:54:18;;;;;;;13.27;11.23;;;;;;;;;;5073570;28;20444;-67
2022/10/04 02:56:46;;;;;;;14.80;10.63;;;;;;;;;;5072929;28;20429;-67
2022/10/04 02:59:16;;;;;;;14.20;10.40;;;;;;;;;;5072667;28;20938;-66
2022/10/04 03:01:49;;;;;;;19.70;11.00;;;;;;;;;;5072908;28;20447;-67
2022/10/04 03:04:19;;;;;;;16.53;10.23;;;;;;;;;;5072881;28;20445;-66
2022/10/04 03:06:47;;;;;;;10.63;9.60;;;;;;;;;;5074673;28;20539;-67
2022/10/04 03:09:15;;;;;;;13.88;10.40;;;;;;;;;;5077065;28;20467;-67
2022/10/04 03:11:43;;;;;;;13.05;10.52;;;;;;;;;;5076208;28;20201;-67
2022/10/04 03:14:13;;;;;;;18.40;10.67;;;;;;;;;;5076208;28;20644;-66
2022/10/04 03:16:43;;;;;;;14.03;10.90;;;;;;;;;;5076544;28;20429;-67
2022/10/04 03:19:11;;;;;;;20.03;10.70;;;;;;;;;;5076850;28;20436;-66
2022/10/04 03:21:39;;;;;;;21.03;11.10;;;;;;;;;;5075924;28;20945;-67
2022/10/04 03:24:07;;;;;;;13.27;9.40;;;;;;;;;;5076432;28;20827;-66
2022/10/04 03:26:37;;;;;;;17.80;11.35;;;;;;;;;;5076511;28;20447;-67
2022/10/04 03:29:08;;;;;;;12.17;10.97;;;;;;;;;;5076266;28;20210;-66
2022/10/04 03:31:35;;;;;;;14.20;9.87;;;;;;;;;;5076458;28;20424;-68
2022/10/04 03:34:04;;;;;;;14.23;10.00;;;;;;;;;;5076162;28;20440;-66
2022/10/04 03:36:31;;;;;;;14.27;10.20;;;;;;;;;;5076018;28;20440;-67
2022/10/04 03:38:59;;;;;;;15.57;10.77;;;;;;;;;;5076042;28;20526;-67
2022/10/04 03:41:26;;;;;;;14.38;10.70;;;;;;;;;;5076317;28;20440;-66
2022/10/04 03:43:55;;;;;;;13.73;10.67;;;;;;;;;;5075728;28;20207;-65
2022/10/04 03:46:23;;;;;;;14.27;9.70;;;;;;;;;;5075681;28;20531;-66
2022/10/04 03:48:51;;;;;;;15.93;10.53;;;;;;;;;;5075519;28;20217;-66
2022/10/04 03:51:21;;;;;;;15.00;10.40;;;;;;;;;;5075730;28;20441;-66
2022/10/04 03:53:49;;;;;;;15.57;9.88;;;;;;;;;;5075716;28;20452;-66
2022/10/04 03:56:18;;;;;;;11.20;9.97;;;;;;;;;;5073950;28;20548;-66
2022/10/04 03:58:46;;;;;;;12.93;10.38;;;;;;;;;;5075640;28;20448;-67
2022/10/04 04:01:18;;;;;;;11.98;9.82;;;;;;;;;;5075178;28;20201;-66
2022/10/04 04:04:03;;;;;;;13.20;10.40;;;;;;;;;;5075191;28;20631;-66
2022/10/04 04:06:38;;;;;;;11.70;10.60;;;;;;;;;;5075622;28;20186;-66
2022/10/04 04:09:06;;;;;;;17.90;9.98;;;;;;;;;;5075605;28;20213;-66
2022/10/04 04:11:33;;;;;;;13.80;9.98;;;;;;;;;;5074903;28;20200;-66
2022/10/04 04:14:04;;;;;;;12.35;9.93;;;;;;;;;;5075360;28;20193;-66
2022/10/04 04:16:31;;;;;;;12.60;10.53;;;;;;;;;;5075108;28;20212;-66
2022/10/04 04:19:00;;;;;;;13.70;11.35;;;;;;;;;;5075149;28;20456;-66
2022/10/04 04:21:28;;;;;;;12.68;10.77;;;;;;;;;;5075037;28;20205;-66
2022/10/04 04:23:59;;;;;;;11.90;10.70;;;;;;;;;;5074695;28;20230;-65
2022/10/04 04:26:28;;;;;;;15.68;10.85;;;;;;;;;;5075149;28;20218;-66
2022/10/04 04:28:58;;;;;;;13.73;9.60;;;;;;;;;;5075049;28;20233;-66
2022/10/04 04:31:26;;;;;;;13.53;10.20;;;;;;;;;;5074613;28;20190;-66
2022/10/04 04:33:59;;;;;;;16.92;10.07;;;;;;;;;;5075518;28;20441;-66
2022/10/04 04:36:27;;;;;;;18.38;11.30;;;;;;;;;;5074645;28;20210;-66
2022/10/04 04:41:41;;;;;;;13.10;10.90;;;;;;;;;;5074558;28;20240;-66
2022/10/04 04:44:17;;;;;;;12.47;11.27;;;;;;;;;;5074930;28;20545;-66
2022/10/04 04:46:44;;;;;;;13.13;11.77;;;;;;;;;;5075014;28;20432;-66
2022/10/04 04:49:12;;;;;;;13.70;10.70;;;;;;;;;;5074598;28;20484;-66
2022/10/04 04:51:41;;;;;;;14.40;10.63;;;;;;;;;;5073983;28;20289;-66
2022/10/04 04:54:08;;;;;;;21.58;11.77;;;;;;;;;;5074788;28;20794;-66
2022/10/04 04:56:36;;;;;;;18.42;12.32;;;;;;;;;;5073979;28;20198;-66
2022/10/04 04:59:06;;;;;;;13.02;11.65;;;;;;;;;;5074476;28;20209;-66
2022/10/04 05:01:35;;;;;;;16.90;12.32;;;;;;;;;;5074282;28;20640;-66
2022/10/04 05:04:03;;;;;;;14.70;13.18;;;;;;;;;;5074360;28;20198;-66
2022/10/04 05:06:30;;;;;;;21.20;13.68;;;;;;;;;;5074456;28;20201;-67
2022/10/04 05:08:58;;;;;;;13.73;12.40;;;;;;;;;;5074115;28;20204;-66
2022/10/04 05:11:28;;;;;;;14.60;12.73;;;;;;;;;;5073740;28;20247;-66
2022/10/04 05:13:57;;;;;;;19.38;13.27;;;;;;;;;;5073924;28;20216;-66
2022/10/04 05:16:27;;;;;;;28.45;13.30;;;;;;;;;;5074317;28;20200;-65
2022/10/04 05:18:57;;;;;;;18.37;13.43;;;;;;;;;;5074222;28;20187;-66
2022/10/04 05:21:26;;;;;;;17.55;13.10;;;;;;;;;;5073869;28;20448;-68
2022/10/04 05:23:56;;;;;;;17.67;11.95;;;;;;;;;;5073467;28;20229;-66
2022/10/04 05:26:25;;;;;;;15.30;13.03;;;;;;;;;;5074089;28;20273;-65
2022/10/04 05:28:53;;;;;;;19.70;13.55;;;;;;;;;;5072681;28;20447;-66
2022/10/04 05:31:36;;;;;;;19.48;13.77;;;;;;;;;;5073447;28;20197;-66
2022/10/04 05:34:04;;;;;;;16.75;13.60;;;;;;;;;;5073958;28;20185;-66
2022/10/04 05:36:46;;;;;;;19.10;14.93;;;;;;;;;;5073906;28;20194;-65
2022/10/04 05:39:20;;;;;;;15.98;14.25;;;;;;;;;;5073932;28;20201;-66
2022/10/04 05:41:52;;;;;;;26.10;18.70;;;;;;;;;;5074819;28;20192;-66
2022/10/04 05:44:26;;;;;;;16.25;14.50;;;;;;;;;;5073444;28;20182;-66
2022/10/04 05:46:55;;;;;;;19.48;14.65;;;;;;;;;;5073799;28;20209;-65
2022/10/04 05:49:24;;;;;;;22.05;16.20;;;;;;;;;;5073419;28;20339;-66
2022/10/04 05:51:53;;;;;;;19.02;14.60;;;;;;;;;;5073390;28;20619;-66
2022/10/04 05:54:22;;;;;;;18.05;16.08;;;;;;;;;;5073084;28;20205;-66
2022/10/04 05:56:55;;;;;;;20.60;14.32;;;;;;;;;;5073858;28;20201;-66
2022/10/04 05:59:38;;;;;;;22.70;14.43;;;;;;;;;;5073157;28;20723;-66
2022/10/04 06:02:13;;;;;;;20.67;15.73;;;;;;;;;;5073791;28;20186;-66
2022/10/04 06:04:49;;;;;;;16.40;14.88;;;;;;;;;;5073836;28;20189;-66
2022/10/04 06:07:21;;;;;;;19.30;15.13;;;;;;;;;;5073414;28;20546;-67
2022/10/04 06:10:00;;;;;;;17.27;14.95;;;;;;;;;;5073884;28;20216;-65
2022/10/04 06:12:34;;;;;;;21.02;15.70;;;;;;;;;;5072894;28;20182;-66
2022/10/04 06:15:16;;;;;;;16.10;14.50;;;;;;;;;;5073970;28;20570;-66
2022/10/04 06:17:58;;;;;;;18.73;15.00;;;;;;;;;;5070674;28;20201;-66
2022/10/04 06:20:53;;;;;;;21.90;14.90;;;;;;;;;;5073627;28;20199;-66
2022/10/04 06:23:21;;;;;;;18.95;16.30;;;;;;;;;;5073187;28;20218;-66
2022/10/04 06:25:50;;;;;;;19.65;14.73;;;;;;;;;;5073321;28;20659;-66
2022/10/04 06:28:20;;;;;;;29.47;16.27;;;;;;;;;;5073029;28;20198;-66
2022/10/04 06:31:05;;;;;;;24.47;16.20;;;;;;;;;;5072897;28;20492;-66
2022/10/04 06:33:45;;;;;;;19.42;14.90;;;;;;;;;;5042424;28;20534;-66
2022/10/04 06:36:33;;;;;;;21.50;14.27;;;;;;;;;;5073360;28;20182;-67
2022/10/04 06:39:06;;;;;;;18.30;14.33;;;;;;;;;;5068264;28;20259;-67
2022/10/04 06:41:43;;;;;;;16.08;13.40;;;;;;;;;;5076185;28;20428;-66
2022/10/04 06:44:17;;;;;;;20.42;13.75;;;;;;;;;;5076738;28;20189;-66
2022/10/04 06:46:47;;;;;;;22.33;13.70;;;;;;;;;;5076674;28;20184;-66
2022/10/04 06:49:21;;;;;;;18.47;13.20;;;;;;;;;;5076565;28;20673;-67
2022/10/04 06:51:59;;;;;;;16.03;12.70;;;;;;;;;;5077013;28;20446;-67
2022/10/04 06:54:35;;;;;;;22.23;13.00;;;;;;;;;;5077173;28;20464;-66
2022/10/04 06:57:13;;;;;;;20.07;13.43;;;;;;;;;;5076964;28;20436;-66
2022/10/04 06:59:47;;;;;;;21.27;12.60;;;;;;;;;;5076910;28;20795;-66
2022/10/04 07:02:17;;;;;;;23.70;11.80;;;;;;;;;;5077106;28;20438;-67
2022/10/04 07:04:50;;;;;;;17.50;12.33;;;;;;;;;;5076849;28;20429;-67
2022/10/04 07:07:35;;;;;;;23.13;11.70;;;;;;;;;;5076501;28;20435;-66
2022/10/04 07:10:06;;;;;;;14.67;10.73;;;;;;;;;;5076667;28;20468;-66
2022/10/04 07:12:35;;;;;;;16.90;11.67;;;;;;;;;;5076334;28;20432;-67
2022/10/04 07:15:03;;;;;;;13.33;11.00;;;;;;;;;;5076214;28;20472;-66
2022/10/04 07:17:33;;;;;;;15.60;10.07;;;;;;;;;;5076207;28;20444;-66
2022/10/04 07:20:02;;;;;;;29.63;11.20;;;;;;;;;;5076412;28;20474;-67
2022/10/04 07:22:32;;;;;;;21.73;11.73;;;;;;;;;;5076503;28;20547;-66
2022/10/04 07:25:04;;;;;;;23.70;10.73;;;;;;;;;;5076447;28;20567;-66
2022/10/04 07:27:32;;;;;;;15.67;10.17;;;;;;;;;;5076352;28;20421;-66
2022/10/04 07:30:01;;;;;;;18.63;10.47;;;;;;;;;;5075726;28;20477;-67
2022/10/04 07:32:29;;;;;;;12.23;9.00;;;;;;;;;;5076219;28;20495;-66
2022/10/04 07:35:00;;;;;;;12.83;9.80;;;;;;;;;;5076063;28;20442;-66
2022/10/04 07:37:30;;;;;;;14.90;9.77;;;;;;;;;;5076464;28;20944;-67
2022/10/04 07:39:59;;;;;;;13.30;8.67;;;;;;;;;;5076268;28;20447;-66
2022/10/04 07:42:28;;;;;;;16.23;9.43;;;;;;;;;;5075727;28;20449;-66
2022/10/04 07:45:01;;;;;;;14.67;9.13;;;;;;;;;;5075773;28;20531;-66
2022/10/04 07:47:29;;;;;;;20.13;9.30;;;;;;;;;;5075657;28;20679;-66
2022/10/04 07:49:57;;;;;;;14.90;9.20;;;;;;;;;;5075716;28;20490;-66
2022/10/04 07:52:35;;;;;;;13.07;8.77;;;;;;;;;;5075131;28;20446;-66
2022/10/04 07:55:09;;;;;;;10.57;8.23;;;;;;;;;;5075422;28;20924;-66
2022/10/04 07:57:39;;;;;;;15.10;8.90;;;;;;;;;;5075507;28;20439;-66
2022/10/04 08:00:11;;;;;;;18.53;10.30;;;;;;;;;;5075355;28;20442;-66
2022/10/04 08:02:47;;;;;;;13.33;9.33;;;;;;;;;;5075459;28;20443;-65
2022/10/04 08:05:20;;;;;;;13.13;9.80;;;;;;;;;;5075941;28;20428;-66
2022/10/04 08:07:56;;;;;;;13.90;8.47;;;;;;;;;;5075754;28;20433;-67
2022/10/04 08:10:26;;;;;;;14.53;9.20;;;;;;;;;;5076151;28;20472;-66
2022/10/04 08:12:58;;;;;;;8.67;7.60;;;;;;;;;;5075264;28;20944;-66
2022/10/04 08:15:34;;;;;;;16.30;8.43;;;;;;;;;;5074915;28;20913;-67
2022/10/04 08:18:03;;;;;;;10.00;8.20;;;;;;;;;;5075486;28;20454;-66
2022/10/04 08:20:36;;;;;;;12.43;7.50;;;;;;;;;;5074920;28;20914;-65
2022/10/04 08:23:16;;;;;;;21.20;8.23;;;;;;;;;;5075034;28;20563;-66
2022/10/04 08:25:45;;;;;;;12.23;8.33;;;;;;;;;;5074726;28;20960;-66
2022/10/04 08:31:12;;;;;;;12.93;9.40;;;;;;;;;;5074881;28;20977;-66
2022/10/04 08:33:48;;;;;;;14.70;8.33;;;;;;;;;;5075638;28;20443;-66
2022/10/04 08:36:21;;;;;;;16.30;9.13;;;;;;;;;;5075044;28;20444;-66
2022/10/04 08:38:53;;;;;;;12.50;8.20;;;;;;;;;;5074726;28;20436;-67
2022/10/04 08:41:44;;;;;;;7.83;7.03;;;;;;;;;;5074533;28;20440;-66
2022/10/04 08:44:42;;;;;;;13.13;7.80;;;;;;;;;;5075061;28;20425;-66
2022/10/04 08:47:24;;;;;;;11.37;7.50;;;;;;;;;;5074995;28;20442;-67
2022/10/04 08:50:07;;;;;;;23.20;8.00;;;;;;;;;;5072117;28;20454;-66
2022/10/04 08:52:48;;;;;;;10.97;7.70;;;;;;;;;;5074967;28;20434;-66
2022/10/04 08:55:33;;;;;;;14.07;8.10;;;;;;;;;;5075022;28;20430;-67
2022/10/04 08:58:16;;;;;;;10.37;7.53;;;;;;;;;;5074980;28;20782;-66
2022/10/04 09:01:00;;;;;;;9.57;7.63;;;;;;;;;;5074570;28;20477;-66
2022/10/04 09:04:01;;;;;;;7.90;7.00;;;;;;;;;;5073563;28;20425;-65
2022/10/04 09:06:35;;;;;;;8.60;7.80;;;;;;;;;;5074091;28;20899;-66
2022/10/04 09:09:19;;;;;;;11.97;8.10;;;;;;;;;;5074065;28;20433;-66
2022/10/04 09:11:57;;;;;;;14.03;7.80;;;;;;;;;;5074185;28;20468;-66
2022/10/04 09:14:39;;;;;;;13.53;6.80;;;;;;;;;;5073936;28;20482;-66
2022/10/04 09:17:15;;;;;;;7.83;7.00;;;;;;;;;;5073759;28;20436;-66
2022/10/04 09:19:52;;;;;;;16.27;6.80;;;;;;;;;;5074116;28;20525;-65
2022/10/04 09:22:19;;;;;;;8.17;7.00;;;;;;;;;;5073970;28;20946;-66
2022/10/04 09:25:06;;;;;;;13.07;6.10;;;;;;;;;;5073654;28;20987;-65
2022/10/04 09:27:43;;;;;;;7.40;6.37;;;;;;;;;;5073933;28;20446;-66
2022/10/04 09:30:19;;;;;;;10.00;6.63;;;;;;;;;;5074038;28;20456;-66
2022/10/04 09:33:16;;;;;;;6.60;5.90;;;;;;;;;;5074395;28;20801;-65
2022/10/04 09:36:03;;;;;;;8.80;5.87;;;;;;;;;;5073743;28;20429;-66
2022/10/04 09:38:53;;;;;;;10.10;6.73;;;;;;;;;;5073904;28;20433;-66
2022/10/04 09:41:31;;;;;;;9.90;6.27;;;;;;;;;;5073848;28;20438;-66
2022/10/04 09:44:16;;;;;;;8.33;7.20;;;;;;;;;;5073859;28;20433;-65
2022/10/04 09:47:11;;;;;;;15.93;7.20;;;;;;;;;;5062255;28;20456;-66
2022/10/04 09:49:49;;;;;;;5.93;5.33;;;;;;;;;;5037884;28;20446;-66
2022/10/04 09:52:29;;;;;;;12.00;6.07;;;;;;;;;;5073417;28;20470;-66
2022/10/04 09:55:10;;;;;;;14.23;5.80;;;;;;;;;;5073978;28;20464;-67
2022/10/04 09:57:45;;;;;;;9.00;6.60;;;;;;;;;;5073415;28;20431;-65
2022/10/04 10:00:20;;;;;;;9.20;7.40;;;;;;;;;;5073115;28;20434;-66
2022/10/04 10:02:58;;;;;;;18.57;6.77;;;;;;;;;;5073433;28;20849;-66
2022/10/04 10:05:34;;;;;;;16.13;6.43;;;;;;;;;;5073376;28;20882;-66
2022/10/04 10:08:09;;;;;;;8.73;6.27;;;;;;;;;;5073106;28;20473;-66
2022/10/04 10:13:41;;;;;;;6.70;5.70;;;;;;;;;;5073183;28;20398;-66
2022/10/04 10:16:28;;;;;;;9.30;4.80;;;;;;;;;;5073195;28;20426;-66
2022/10/04 10:19:04;;;;;;;11.30;5.43;;;;;;;;;;5073430;28;20441;-66
2022/10/04 10:21:46;;;;;;;9.30;5.23;;;;;;;;;;5072860;28;20431;-66
2022/10/04 10:24:26;;;;;;;13.90;5.53;;;;;;;;;;5072788;28;20476;-66
2022/10/04 10:27:02;;;;;;;8.13;4.80;;;;;;;;;;5073389;28;20455;-65
2022/10/04 10:29:42;;;;;;;6.90;5.73;;;;;;;;;;5073084;28;20503;-65
2022/10/04 10:32:18;;;;;;;6.13;5.53;;;;;;;;;;5073145;28;20469;-67
2022/10/04 10:35:00;;;;;;;7.83;5.27;;;;;;;;;;5073187;28;20442;-66
2022/10/04 10:37:39;;;;;;;13.03;5.70;;;;;;;;;;5072604;28;20913;-67
2022/10/04 10:40:16;;;;;;;8.10;5.80;;;;;;;;;;5072598;28;20470;-66
2022/10/04 10:42:55;;;;;;;7.53;6.80;;;;;;;;;;5072993;28;20867;-66
2022/10/04 10:45:36;;;;;;;10.47;5.53;;;;;;;;;;5072596;28;20441;-66
2022/10/04 10:48:08;;;;;;;8.30;5.63;;;;;;;;;;5072586;28;20427;-66
2022/10/04 10:51:00;;;;;;;8.37;5.57;;;;;;;;;;5072849;28;20430;-66
2022/10/04 10:53:42;;;;;;;9.10;5.63;;;;;;;;;;5073436;28;20463;-66
2022/10/04 10:56:23;;;;;;;11.93;6.07;;;;;;;;;;5073443;28;20429;-66
2022/10/04 10:59:14;;;;;;;10.43;4.80;;;;;;;;;;5072528;28;20436;-66
2022/10/04 11:01:58;;;;;;;8.30;5.30;;;;;;;;;;5072950;28;20436;-66
2022/10/04 11:04:39;;;;;;;10.90;5.07;;;;;;;;;;5073117;28;20438;-66
2022/10/04 11:07:21;;;;;;;9.97;5.23;;;;;;;;;;5072657;28;20446;-66
2022/10/04 11:10:10;;;;;;;8.73;5.17;;;;;;;;;;5072717;28;20511;-66
2022/10/04 11:12:52;;;;;;;8.13;4.30;;;;;;;;;;5067836;28;20492;-67
2022/10/04 11:15:35;;;;;;;11.93;6.10;;;;;;;;;;5072365;28;20434;-66
2022/10/04 11:18:08;;;;;;;7.60;4.97;;;;;;;;;;5072675;28;20455;-66
2022/10/04 11:20:49;;;;;;;9.60;5.40;;;;;;;;;;5072389;28;20431;-66
2022/10/04 11:23:34;;;;;;;12.43;4.60;;;;;;;;;;5072168;28;20559;-66
2022/10/04 11:26:25;;;;;;;5.87;5.00;;;;;;;;;;5072224;28;20556;-65
2022/10/04 11:28:56;;;;;;;10.67;6.00;;;;;;;;;;5060634;28;20460;-66
2022/10/04 11:31:39;;;;;;;9.77;6.73;;;;;;;;;;5075652;28;20471;-67
2022/10/04 11:34:18;;;;;;;11.57;5.50;;;;;;;;;;5076085;28;20423;-65
2022/10/04 11:36:50;;;;;;;11.00;5.03;;;;;;;;;;5076299;28;20438;-66
2022/10/04 11:39:36;;;;;;;7.30;4.70;;;;;;;;;;5076476;28;20442;-66
2022/10/04 11:42:07;;;;;;;12.43;5.70;;;;;;;;;;5075515;28;20443;-66
2022/10/04 11:44:51;;;;;;;8.40;5.80;;;;;;;;;;5075987;28;20450;-65
2022/10/04 11:47:27;;;;;;;9.47;5.57;;;;;;;;;;5076210;28;20762;-66
2022/10/04 11:49:59;;;;;;;8.07;5.00;;;;;;;;;;5075978;28;20435;-66
2022/10/04 11:52:35;;;;;;;8.00;4.43;;;;;;;;;;5075910;28;20481;-66
2022/10/04 11:55:24;;;;;;;6.37;4.20;;;;;;;;;;5075605;28;20427;-66
2022/10/04 11:57:53;;;;;;;7.40;5.07;;;;;;;;;;5071459;28;20553;-66
2022/10/04 12:00:21;;;;;;;9.73;4.77;;;;;;;;;;5075838;28;20450;-65
2022/10/04 12:03:09;;;;;;;7.10;4.13;;;;;;;;;;5075610;28;20452;-66
2022/10/04 12:05:49;;;;;;;10.80;5.50;;;;;;;;;;5075445;28;20435;-65
2022/10/04 12:08:21;;;;;;;11.03;4.90;;;;;;;;;;5075215;28;20951;-66
2022/10/04 12:11:00;;;;;;;10.43;4.60;;;;;;;;;;5075183;28;20451;-65
2022/10/04 12:13:36;;;;;;;8.43;4.70;;;;;;;;;;5075489;28;20435;-66
2022/10/04 12:16:28;;;;;;;5.57;4.13;;;;;;;;;;5075927;28;20488;-66
2022/10/04 12:19:20;;;;;;;9.47;4.77;;;;;;;;;;5066652;28;20464;-66
2022/10/04 12:21:58;;;;;;;8.43;4.40;;;;;;;;;;5075069;28;20934;-65
2022/10/04 12:24:32;;;;;;;6.00;3.97;;;;;;;;;;5074620;28;20500;-66
2022/10/04 12:27:18;;;;;;;8.63;4.10;;;;;;;;;;5075363;28;20493;-65
2022/10/04 12:30:03;;;;;;;6.47;4.07;;;;;;;;;;5075296;28;20436;-66
2022/10/04 12:32:33;;;;;;;5.77;4.27;;;;;;;;;;5075228;28;20810;-66
2022/10/04 12:35:05;;;;;;;5.93;3.80;;;;;;;;;;5075056;28;20448;-65
2022/10/04 12:37:39;;;;;;;8.57;3.40;;;;;;;;;;5075016;28;20447;-66
2022/10/04 12:40:22;;;;;;;7.40;3.97;;;;;;;;;;5075016;28;20445;-65
2022/10/04 12:42:52;;;;;;;8.13;4.30;;;;;;;;;;5075226;28;20450;-66
2022/10/04 12:45:26;;;;;;;6.50;3.97;;;;;;;;;;5074592;28;20443;-66
2022/10/04 12:48:11;;;;;;;8.10;4.87;;;;;;;;;;5074389;28;20519;-66
2022/10/04 12:50:47;;;;;;;5.73;4.60;;;;;;;;;;5074266;28;20452;-66
2022/10/04 12:53:18;;;;;;;5.23;4.03;;;;;;;;;;5074404;28;20493;-65
2022/10/04 12:55:56;;;;;;;4.80;3.70;;;;;;;;;;5074927;28;20430;-68
2022/10/04 12:58:25;;;;;;;7.90;4.37;;;;;;;;;;5075005;28;20437;-65
2022/10/04 13:00:54;;;;;;;4.70;3.60;;;;;;;;;;5074472;28;20495;-65
2022/10/04 13:03:26;;;;;;;5.83;4.00;;;;;;;;;;5074367;28;20779;-64
2022/10/04 13:06:01;;;;;;;8.03;3.87;;;;;;;;;;5074092;28;20432;-65
2022/10/04 13:08:39;;;;;;;5.20;4.03;;;;;;;;;;5074553;28;20435;-65
2022/10/04 13:11:13;;;;;;;3.60;3.30;;;;;;;;;;5074270;28;20479;-65
2022/10/04 13:13:55;;;;;;;4.23;3.60;;;;;;;;;;5074347;28;20450;-65
2022/10/04 13:16:27;;;;;;;5.57;3.60;;;;;;;;;;5073693;28;20532;-65
2022/10/04 13:18:59;;;;;;;5.03;3.60;;;;;;;;;;5073123;28;20432;-65
2022/10/04 13:21:47;;;;;;;4.13;3.70;;;;;;;;;;5074068;28;20439;-64
2022/10/04 13:24:22;;;;;;;5.80;4.43;;;;;;;;;;5073313;28;20482;-65
2022/10/04 13:26:55;;;;;;;7.73;4.47;;;;;;;;;;5073782;28;20433;-64
2022/10/04 13:29:26;;;;;;;7.87;3.97;;;;;;;;;;5073364;28;20430;-64
2022/10/04 13:31:57;;;;;;;6.83;3.60;;;;;;;;;;5073575;28;20476;-69
2022/10/04 13:34:29;;;;;;;7.20;4.20;;;;;;;;;;5074046;28;20810;-64
2022/10/04 13:37:06;;;;;;;7.83;4.30;;;;;;;;;;5073937;28;20534;-64
2022/10/04 13:39:46;;;;;;;8.33;4.43;;;;;;;;;;5073262;28;20962;-64
2022/10/04 13:42:25;;;;;;;5.30;4.10;;;;;;;;;;5073577;28;20963;-64
2022/10/04 13:45:06;;;;;;;8.90;4.27;;;;;;;;;;5073125;28;20434;-64
2022/10/04 13:47:43;;;;;;;7.03;4.37;;;;;;;;;;5073159;28;20907;-65
2022/10/04 13:50:27;;;;;;;13.63;4.30;;;;;;;;;;5052403;28;20427;-65
2022/10/04 13:58:45;;;;;;;5.10;3.13;;;;;;;;;;5053012;28;20398;-66
2022/10/04 14:01:28;;;;;;;6.57;5.07;;;;;;;;;;5053005;28;20440;-66
2022/10/04 14:04:04;;;;;;;7.10;3.77;;;;;;;;;;5050960;28;20514;-66
2022/10/04 14:06:44;;;;;;;8.20;3.90;;;;;;;;;;5053579;28;20515;-67
2022/10/04 14:09:22;;;;;;;4.83;4.00;;;;;;;;;;5053218;28;20452;-66
2022/10/04 14:12:10;;;;;;;4.70;3.63;;;;;;;;;;5053009;28;20914;-67
2022/10/04 14:15:03;;;;;;;6.30;4.10;;;;;;;;;;5053421;28;20437;-65
2022/10/04 14:17:44;;;;;;;6.30;4.33;;;;;;;;;;5063113;28;20524;-66
2022/10/04 14:20:38;;;;;;;6.83;3.47;;;;;;;;;;5052851;28;20869;-66
2022/10/04 14:23:12;;;;;;;5.83;3.87;;;;;;;;;;5052861;28;20885;-66
2022/10/04 14:25:52;;;;;;;4.23;3.60;;;;;;;;;;5052860;28;20519;-65
2022/10/04 14:28:40;;;;;;;11.07;5.87;;;;;;;;;;5052935;28;20443;-66
2022/10/04 14:31:21;;;;;;;7.33;3.87;;;;;;;;;;5052826;28;20437;-66
2022/10/04 14:34:06;;;;;;;9.70;4.07;;;;;;;;;;5052767;28;20488;-66
2022/10/04 14:36:41;;;;;;;5.13;4.53;;;;;;;;;;5053193;28;20434;-67
2022/10/04 14:39:18;;;;;;;5.60;3.50;;;;;;;;;;5052582;28;20442;-66
2022/10/04 14:42:03;;;;;;;7.33;3.70;;;;;;;;;;5052441;28;20522;-66
2022/10/04 14:44:57;;;;;;;7.23;3.70;;;;;;;;;;5052318;28;20817;-67
2022/10/04 14:47:35;;;;;;;4.13;3.43;;;;;;;;;;5052993;28;20506;-66
2022/10/04 14:50:07;;;;;;;4.47;2.60;;;;;;;;;;5052578;28;20451;-66
2022/10/04 14:52:44;;;;;;;4.03;2.57;;;;;;;;;;5052713;28;20478;-67
2022/10/04 14:55:20;;;;;;;4.23;2.77;;;;;;;;;;5052491;28;20435;-67
2022/10/04 14:57:56;;;;;;;4.13;3.20;;;;;;;;;;5053039;28;20521;-70
2022/10/04 15:00:24;;;;;;;3.93;2.60;;;;;;;;;;5052615;28;20438;-67
2022/10/04 15:03:05;;;;;;;3.17;2.83;;;;;;;;;;5056206;28;20451;-67
2022/10/04 15:05:38;;;;;;;6.47;3.43;;;;;;;;;;5056501;28;20441;-67
2022/10/04 15:08:23;;;;;;;7.53;2.97;;;;;;;;;;5056395;28;20519;-67
2022/10/04 15:10:52;;;;;;;6.53;3.40;;;;;;;;;;5056373;28;20431;-67
2022/10/04 15:13:24;;;;;;;3.13;2.63;;;;;;;;;;5056313;28;20495;-69
2022/10/04 15:16:05;;;;;;;3.80;2.87;;;;;;;;;;5056141;28;20439;-68
2022/10/04 15:18:39;;;;;;;3.33;3.00;;;;;;;;;;5063304;28;20930;-67
2022/10/04 15:21:12;;;;;;;4.60;3.10;;;;;;;;;;5075521;28;20929;-67
2022/10/04 15:23:41;;;;;;;4.57;3.03;;;;;;;;;;5075461;28;20482;-67
2022/10/04 15:26:35;;;;;;;2.63;2.43;;;;;;;;;;5075253;28;20452;-67
2022/10/04 15:29:07;;;;;;;3.30;3.00;;;;;;;;;;5074689;28;20480;-67
2022/10/04 15:31:36;;;;;;;5.63;2.90;;;;;;;;;;5075279;28;20436;-67